sensor_id;sensor_type;location;lat;lon;timestamp;pressure;altitude;pressure_sealevel;temperature;humidity
62462;BME280;48511;38.664;-9.202;2022-09-09T00:00:20;100983.31;;;19.72;100.00
62462;BME280;48511;38.664;-9.202;2022-09-09T00:02:23;100983.56;;;19.69;100.00
62462;BME280;48511;38.664;-9.202;2022-09-09T00:04:33;100980.91;;;19.69;100.00
62462;BME280;48511;38.664;-9.202;2022-09-09T00:06:45;100975.84;;;19.66;100.00
62462;BME280;48511;38.664;-9.202;2022-09-09T00:09:02;100983.06;;;19.64;100.00
62462;BME280;48511;38.664;-9.202;2022-09-09T00:11:09;100988.56;;;19.61;100.00
62462;BME280;48511;38.664;-9.202;2022-09-09T00:13:22;100984.97;;;19.62;100.00
62462;BME280;48511;38.664;-9.202;2022-09-09T00:15:41;100984.22;;;19.60;100.00
62462;BME280;48511;38.664;-9.202;2022-09-09T00:20:16;100982.44;;;19.60;100.00
62462;BME280;48511;38.664;-9.202;2022-09-09T00:22:21;100971.75;;;19.62;100.00
62462;BME280;48511;38.664;-9.202;2022-09-09T00:26:39;100963.38;;;19.68;100.00
62462;BME280;48511;38.664;-9.202;2022-09-09T00:28:50;100969.59;;;19.67;100.00
62462;BME280;48511;38.664;-9.202;2022-09-09T00:30:55;100964.44;;;19.65;100.00
62462;BME280;48511;38.664;-9.202;2022-09-09T00:33:08;100960.94;;;19.65;100.00
62462;BME280;48511;38.664;-9.202;2022-09-09T00:35:33;100961.50;;;19.57;100.00
62462;BME280;48511;38.664;-9.202;2022-09-09T00:37:35;100964.28;;;19.56;100.00
62462;BME280;48511;38.664;-9.202;2022-09-09T00:39:42;100966.91;;;19.56;100.00
62462;BME280;48511;38.664;-9.202;2022-09-09T00:44:25;100965.72;;;19.60;100.00
62462;BME280;48511;38.664;-9.202;2022-09-09T00:49:18;100959.72;;;19.58;100.00
62462;BME280;48511;38.664;-9.202;2022-09-09T00:51:37;100957.09;;;19.58;100.00
62462;BME280;48511;38.664;-9.202;2022-09-09T00:56:20;100953.25;;;19.62;100.00
62462;BME280;48511;38.664;-9.202;2022-09-09T00:58:24;100955.53;;;19.55;100.00
62462;BME280;48511;38.664;-9.202;2022-09-09T01:00:26;100956.22;;;19.57;100.00
62462;BME280;48511;38.664;-9.202;2022-09-09T01:02:40;100959.94;;;19.55;100.00
62462;BME280;48511;38.664;-9.202;2022-09-09T01:04:43;100967.03;;;19.54;100.00
62462;BME280;48511;38.664;-9.202;2022-09-09T01:06:45;100961.63;;;19.56;100.00
62462;BME280;48511;38.664;-9.202;2022-09-09T01:11:20;100956.63;;;19.64;100.00
62462;BME280;48511;38.664;-9.202;2022-09-09T01:13:25;100960.25;;;19.74;100.00
62462;BME280;48511;38.664;-9.202;2022-09-09T01:15:29;100961.97;;;19.87;100.00
62462;BME280;48511;38.664;-9.202;2022-09-09T01:17:35;100959.13;;;19.90;100.00
62462;BME280;48511;38.664;-9.202;2022-09-09T01:19:47;100964.41;;;19.90;100.00
62462;BME280;48511;38.664;-9.202;2022-09-09T01:24:12;100960.53;;;19.82;100.00
62462;BME280;48511;38.664;-9.202;2022-09-09T01:26:46;100957.84;;;19.71;100.00
62462;BME280;48511;38.664;-9.202;2022-09-09T01:28:58;100948.56;;;19.65;100.00
62462;BME280;48511;38.664;-9.202;2022-09-09T01:31:15;100953.97;;;19.64;100.00
62462;BME280;48511;38.664;-9.202;2022-09-09T01:33:20;100959.16;;;19.65;100.00
62462;BME280;48511;38.664;-9.202;2022-09-09T01:35:32;100953.25;;;19.62;100.00
62462;BME280;48511;38.664;-9.202;2022-09-09T01:37:37;100945.56;;;19.59;100.00
62462;BME280;48511;38.664;-9.202;2022-09-09T01:39:40;100945.78;;;19.56;100.00
62462;BME280;48511;38.664;-9.202;2022-09-09T01:41:45;100947.59;;;19.55;100.00
62462;BME280;48511;38.664;-9.202;2022-09-09T01:43:48;100946.72;;;19.55;100.00
62462;BME280;48511;38.664;-9.202;2022-09-09T01:45:53;100939.53;;;19.57;100.00
62462;BME280;48511;38.664;-9.202;2022-09-09T01:47:54;100937.84;;;19.56;100.00
62462;BME280;48511;38.664;-9.202;2022-09-09T01:50:12;100935.47;;;19.64;100.00
62462;BME280;48511;38.664;-9.202;2022-09-09T01:52:14;100927.78;;;19.72;100.00
62462;BME280;48511;38.664;-9.202;2022-09-09T01:54:15;100928.00;;;19.93;100.00
62462;BME280;48511;38.664;-9.202;2022-09-09T01:59:11;100935.78;;;20.17;100.00
62462;BME280;48511;38.664;-9.202;2022-09-09T02:03:32;100926.44;;;20.25;100.00
62462;BME280;48511;38.664;-9.202;2022-09-09T02:05:59;100934.16;;;20.28;100.00
62462;BME280;48511;38.664;-9.202;2022-09-09T02:08:07;100933.63;;;20.34;100.00
62462;BME280;48511;38.664;-9.202;2022-09-09T02:10:45;100928.81;;;20.39;100.00
62462;BME280;48511;38.664;-9.202;2022-09-09T02:13:08;100932.41;;;20.61;100.00
62462;BME280;48511;38.664;-9.202;2022-09-09T02:15:18;100929.53;;;20.64;100.00
62462;BME280;48511;38.664;-9.202;2022-09-09T02:17:29;100940.38;;;20.72;100.00
62462;BME280;48511;38.664;-9.202;2022-09-09T02:19:47;100937.50;;;20.75;100.00
62462;BME280;48511;38.664;-9.202;2022-09-09T02:22:05;100936.63;;;20.75;100.00
62462;BME280;48511;38.664;-9.202;2022-09-09T02:24:07;100939.88;;;20.67;100.00
62462;BME280;48511;38.664;-9.202;2022-09-09T02:26:16;100937.47;;;20.64;100.00
62462;BME280;48511;38.664;-9.202;2022-09-09T02:28:25;100932.28;;;20.62;100.00
62462;BME280;48511;38.664;-9.202;2022-09-09T02:30:30;100934.84;;;20.53;100.00
62462;BME280;48511;38.664;-9.202;2022-09-09T02:32:34;100941.34;;;20.48;100.00
62462;BME280;48511;38.664;-9.202;2022-09-09T02:34:40;100936.06;;;20.48;100.00
62462;BME280;48511;38.664;-9.202;2022-09-09T02:36:43;100933.75;;;20.44;100.00
62462;BME280;48511;38.664;-9.202;2022-09-09T02:38:47;100939.31;;;20.41;100.00
62462;BME280;48511;38.664;-9.202;2022-09-09T02:40:55;100936.66;;;20.29;100.00
62462;BME280;48511;38.664;-9.202;2022-09-09T02:42:57;100939.31;;;20.29;100.00
62462;BME280;48511;38.664;-9.202;2022-09-09T02:44:58;100941.22;;;20.27;100.00
62462;BME280;48511;38.664;-9.202;2022-09-09T02:47:10;100947.47;;;20.26;100.00
62462;BME280;48511;38.664;-9.202;2022-09-09T02:52:05;100939.66;;;20.25;100.00
62462;BME280;48511;38.664;-9.202;2022-09-09T02:54:27;100939.91;;;20.22;100.00
62462;BME280;48511;38.664;-9.202;2022-09-09T02:56:37;100939.66;;;20.25;100.00
62462;BME280;48511;38.664;-9.202;2022-09-09T02:58:40;100938.81;;;20.24;100.00
62462;BME280;48511;38.664;-9.202;2022-09-09T03:00:41;100930.03;;;20.24;100.00
62462;BME280;48511;38.664;-9.202;2022-09-09T03:02:41;100931.72;;;20.25;100.00
62462;BME280;48511;38.664;-9.202;2022-09-09T03:04:42;100939.44;;;20.28;100.00
62462;BME280;48511;38.664;-9.202;2022-09-09T03:06:47;100925.34;;;20.27;100.00
62462;BME280;48511;38.664;-9.202;2022-09-09T03:08:54;100926.69;;;20.33;100.00
62462;BME280;48511;38.664;-9.202;2022-09-09T03:10:59;100926.69;;;20.33;100.00
62462;BME280;48511;38.664;-9.202;2022-09-09T03:13:04;100928.13;;;20.37;100.00
62462;BME280;48511;38.664;-9.202;2022-09-09T03:15:09;100923.91;;;20.35;100.00
62462;BME280;48511;38.664;-9.202;2022-09-09T03:17:11;100924.25;;;20.41;100.00
62462;BME280;48511;38.664;-9.202;2022-09-09T03:19:20;100932.66;;;20.46;100.00
62462;BME280;48511;38.664;-9.202;2022-09-09T03:21:21;100937.72;;;20.49;100.00
62462;BME280;48511;38.664;-9.202;2022-09-09T03:23:23;100934.97;;;20.51;100.00
62462;BME280;48511;38.664;-9.202;2022-09-09T03:25:25;100933.41;;;20.48;100.00
62462;BME280;48511;38.664;-9.202;2022-09-09T03:27:28;100933.28;;;20.50;100.00
62462;BME280;48511;38.664;-9.202;2022-09-09T03:29:29;100936.06;;;20.48;100.00
62462;BME280;48511;38.664;-9.202;2022-09-09T03:31:35;100931.59;;;20.49;100.00
62462;BME280;48511;38.664;-9.202;2022-09-09T03:33:37;100928.34;;;20.45;100.00
62462;BME280;48511;38.664;-9.202;2022-09-09T03:35:45;100927.38;;;20.46;100.00
62462;BME280;48511;38.664;-9.202;2022-09-09T03:37:50;100931.72;;;20.47;100.00
62462;BME280;48511;38.664;-9.202;2022-09-09T03:39:51;100919.31;;;20.48;100.00
62462;BME280;48511;38.664;-9.202;2022-09-09T03:41:55;100925.47;;;20.48;100.00
62462;BME280;48511;38.664;-9.202;2022-09-09T03:43:56;100928.81;;;20.51;100.00
62462;BME280;48511;38.664;-9.202;2022-09-09T03:45:59;100922.19;;;20.56;100.00
62462;BME280;48511;38.664;-9.202;2022-09-09T03:48:01;100932.88;;;20.66;100.00
62462;BME280;48511;38.664;-9.202;2022-09-09T03:50:04;100924.59;;;20.71;100.00
62462;BME280;48511;38.664;-9.202;2022-09-09T03:52:09;100924.72;;;20.69;100.00
62462;BME280;48511;38.664;-9.202;2022-09-09T03:54:10;100923.00;;;20.68;100.00
62462;BME280;48511;38.664;-9.202;2022-09-09T03:56:11;100924.81;;;20.68;100.00
62462;BME280;48511;38.664;-9.202;2022-09-09T03:58:13;100934.22;;;20.83;100.00
62462;BME280;48511;38.664;-9.202;2022-09-09T04:00:14;100936.19;;;21.02;100.00
62462;BME280;48511;38.664;-9.202;2022-09-09T04:02:22;100934.13;;;21.06;100.00
62462;BME280;48511;38.664;-9.202;2022-09-09T04:04:23;100937.66;;;20.95;100.00
62462;BME280;48511;38.664;-9.202;2022-09-09T04:06:24;100934.56;;;20.90;100.00
62462;BME280;48511;38.664;-9.202;2022-09-09T04:08:25;100929.72;;;20.95;100.00
62462;BME280;48511;38.664;-9.202;2022-09-09T04:10:26;100941.00;;;20.97;100.00
62462;BME280;48511;38.664;-9.202;2022-09-09T04:12:28;100930.00;;;20.80;100.00
62462;BME280;48511;38.664;-9.202;2022-09-09T04:14:29;100931.19;;;20.76;100.00
62462;BME280;48511;38.664;-9.202;2022-09-09T04:16:32;100934.09;;;20.73;100.00
62462;BME280;48511;38.664;-9.202;2022-09-09T04:18:33;100935.53;;;20.77;100.00
62462;BME280;48511;38.664;-9.202;2022-09-09T04:20:35;100938.78;;;20.70;100.00
62462;BME280;48511;38.664;-9.202;2022-09-09T04:22:36;100936.38;;;20.67;100.00
62462;BME280;48511;38.664;-9.202;2022-09-09T04:24:39;100937.34;;;20.65;100.00
62462;BME280;48511;38.664;-9.202;2022-09-09T04:26:40;100929.75;;;20.61;100.00
62462;BME280;48511;38.664;-9.202;2022-09-09T04:28:42;100941.31;;;20.60;100.00
62462;BME280;48511;38.664;-9.202;2022-09-09T04:30:51;100930.00;;;20.58;100.00
62462;BME280;48511;38.664;-9.202;2022-09-09T04:32:53;100926.91;;;20.53;100.00
62462;BME280;48511;38.664;-9.202;2022-09-09T04:34:54;100941.69;;;20.55;100.00
62462;BME280;48511;38.664;-9.202;2022-09-09T04:36:55;100942.66;;;20.54;100.00
62462;BME280;48511;38.664;-9.202;2022-09-09T04:38:57;100944.44;;;20.65;100.00
62462;BME280;48511;38.664;-9.202;2022-09-09T04:40:59;100947.00;;;20.55;100.00
62462;BME280;48511;38.664;-9.202;2022-09-09T04:43:02;100942.19;;;20.49;100.00
62462;BME280;48511;38.664;-9.202;2022-09-09T04:45:06;100951.94;;;20.48;100.00
62462;BME280;48511;38.664;-9.202;2022-09-09T04:47:07;100949.78;;;20.42;100.00
62462;BME280;48511;38.664;-9.202;2022-09-09T04:49:08;100948.09;;;20.41;100.00
62462;BME280;48511;38.664;-9.202;2022-09-09T04:51:12;100947.59;;;20.36;100.00
62462;BME280;48511;38.664;-9.202;2022-09-09T04:53:13;100945.78;;;20.59;100.00
62462;BME280;48511;38.664;-9.202;2022-09-09T04:55:14;100938.22;;;20.43;100.00
62462;BME280;48511;38.664;-9.202;2022-09-09T04:57:18;100946.78;;;20.36;100.00
62462;BME280;48511;38.664;-9.202;2022-09-09T04:59:19;100955.06;;;20.31;100.00
62462;BME280;48511;38.664;-9.202;2022-09-09T05:01:24;100947.38;;;20.28;100.00
62462;BME280;48511;38.664;-9.202;2022-09-09T05:03:27;100941.34;;;20.26;100.00
62462;BME280;48511;38.664;-9.202;2022-09-09T05:05:28;100944.72;;;20.28;100.00
62462;BME280;48511;38.664;-9.202;2022-09-09T05:07:29;100935.09;;;20.27;100.00
62462;BME280;48511;38.664;-9.202;2022-09-09T05:09:32;100939.66;;;20.25;100.00
62462;BME280;48511;38.664;-9.202;2022-09-09T05:11:35;100936.06;;;20.26;100.00
62462;BME280;48511;38.664;-9.202;2022-09-09T05:13:45;100939.66;;;20.25;100.00
62462;BME280;48511;38.664;-9.202;2022-09-09T05:15:53;100934.50;;;20.23;100.00
62462;BME280;48511;38.664;-9.202;2022-09-09T05:17:59;100932.81;;;20.22;100.00
62462;BME280;48511;38.664;-9.202;2022-09-09T05:20:03;100937.97;;;20.24;100.00
62462;BME280;48511;38.664;-9.202;2022-09-09T05:22:05;100934.38;;;20.25;100.00
62462;BME280;48511;38.664;-9.202;2022-09-09T05:24:13;100932.69;;;20.24;100.00
62462;BME280;48511;38.664;-9.202;2022-09-09T05:26:17;100930.50;;;20.29;100.00
62462;BME280;48511;38.664;-9.202;2022-09-09T05:28:20;100941.09;;;20.29;100.00
62462;BME280;48511;38.664;-9.202;2022-09-09T05:30:21;100926.06;;;20.29;100.00
62462;BME280;48511;38.664;-9.202;2022-09-09T05:32:29;100937.38;;;20.31;100.00
62462;BME280;48511;38.664;-9.202;2022-09-09T05:34:32;100935.09;;;20.38;99.83
62462;BME280;48511;38.664;-9.202;2022-09-09T05:36:35;100931.13;;;20.32;100.00
62462;BME280;48511;38.664;-9.202;2022-09-09T05:38:36;100928.34;;;20.34;100.00
62462;BME280;48511;38.664;-9.202;2022-09-09T05:40:36;100925.59;;;20.36;99.91
62462;BME280;48511;38.664;-9.202;2022-09-09T05:42:38;100930.03;;;20.35;99.66
62462;BME280;48511;38.664;-9.202;2022-09-09T05:44:40;100937.28;;;20.33;99.55
62462;BME280;48511;38.664;-9.202;2022-09-09T05:46:42;100926.69;;;20.33;99.66
62462;BME280;48511;38.664;-9.202;2022-09-09T05:48:47;100931.00;;;20.34;99.96
62462;BME280;48511;38.664;-9.202;2022-09-09T05:50:54;100931.97;;;20.33;99.61
62462;BME280;48511;38.664;-9.202;2022-09-09T05:52:55;100926.69;;;20.33;99.67
62462;BME280;48511;38.664;-9.202;2022-09-09T05:54:56;100927.38;;;20.35;99.92
62462;BME280;48511;38.664;-9.202;2022-09-09T05:56:57;100924.75;;;20.35;99.76
62462;BME280;48511;38.664;-9.202;2022-09-09T05:58:59;100922.09;;;20.35;99.87
62462;BME280;48511;38.664;-9.202;2022-09-09T06:01:08;100919.44;;;20.35;99.93
62462;BME280;48511;38.664;-9.202;2022-09-09T06:03:11;100912.47;;;20.34;99.46
62462;BME280;48511;38.664;-9.202;2022-09-09T06:05:13;100921.13;;;20.36;99.28
62462;BME280;48511;38.664;-9.202;2022-09-09T06:07:14;100911.97;;;20.40;98.77
62462;BME280;48511;38.664;-9.202;2022-09-09T06:09:15;100918.22;;;20.39;98.72
62462;BME280;48511;38.664;-9.202;2022-09-09T06:11:25;100924.50;;;20.38;99.26
62462;BME280;48511;38.664;-9.202;2022-09-09T06:13:26;100921.75;;;20.40;99.45
62462;BME280;48511;38.664;-9.202;2022-09-09T06:15:27;100921.75;;;20.40;99.44
62462;BME280;48511;38.664;-9.202;2022-09-09T06:17:29;100923.53;;;20.39;99.54
62462;BME280;48511;38.664;-9.202;2022-09-09T06:19:31;100927.13;;;20.49;98.42
62462;BME280;48511;38.664;-9.202;2022-09-09T06:21:36;100928.34;;;20.45;98.11
62462;BME280;48511;38.664;-9.202;2022-09-09T06:23:39;100930.50;;;20.40;97.84
62462;BME280;48511;38.664;-9.202;2022-09-09T06:25:45;100933.88;;;20.42;96.46
62462;BME280;48511;38.664;-9.202;2022-09-09T06:27:48;100940.41;;;20.38;96.20
62462;BME280;48511;38.664;-9.202;2022-09-09T06:29:50;100938.94;;;20.34;95.95
62462;BME280;48511;38.664;-9.202;2022-09-09T06:31:51;100946.78;;;20.36;96.30
62462;BME280;48511;38.664;-9.202;2022-09-09T06:33:58;100947.59;;;20.36;95.39
62462;BME280;48511;38.664;-9.202;2022-09-09T06:35:59;100944.00;;;20.37;94.89
62462;BME280;48511;38.664;-9.202;2022-09-09T06:38:01;100947.59;;;20.36;94.90
62462;BME280;48511;38.664;-9.202;2022-09-09T06:40:02;100939.66;;;20.47;93.32
62462;BME280;48511;38.664;-9.202;2022-09-09T06:42:03;100950.72;;;20.41;93.58
62462;BME280;48511;38.664;-9.202;2022-09-09T06:44:33;100952.41;;;20.42;93.13
62462;BME280;48511;38.664;-9.202;2022-09-09T06:46:34;100952.16;;;20.45;92.74
62462;BME280;48511;38.664;-9.202;2022-09-09T06:48:38;100953.25;;;20.43;93.37
62462;BME280;48511;38.664;-9.202;2022-09-09T06:50:39;100961.31;;;20.41;93.65
62462;BME280;48511;38.664;-9.202;2022-09-09T06:52:40;100958.19;;;20.47;93.60
62462;BME280;48511;38.664;-9.202;2022-09-09T06:54:42;100966.34;;;20.56;93.66
62462;BME280;48511;38.664;-9.202;2022-09-09T06:56:43;100967.56;;;20.86;91.18
62462;BME280;48511;38.664;-9.202;2022-09-09T06:58:52;100966.22;;;20.80;91.58
62462;BME280;48511;38.664;-9.202;2022-09-09T07:01:05;100968.75;;;20.81;91.09
62462;BME280;48511;38.664;-9.202;2022-09-09T07:03:06;100962.03;;;20.77;91.41
62462;BME280;48511;38.664;-9.202;2022-09-09T07:05:07;100971.88;;;20.87;91.04
62462;BME280;48511;38.664;-9.202;2022-09-09T07:07:09;100979.59;;;20.90;89.84
62462;BME280;48511;38.664;-9.202;2022-09-09T07:09:14;100975.84;;;20.92;89.81
62462;BME280;48511;38.664;-9.202;2022-09-09T07:11:19;100982.97;;;20.80;88.86
62462;BME280;48511;38.664;-9.202;2022-09-09T07:13:24;100964.66;;;20.66;89.15
62462;BME280;48511;38.664;-9.202;2022-09-09T07:15:26;100983.47;;;20.74;88.70
62462;BME280;48511;38.664;-9.202;2022-09-09T07:17:28;100986.00;;;20.76;88.88
62462;BME280;48511;38.664;-9.202;2022-09-09T07:19:29;100978.16;;;20.74;89.07
62462;BME280;48511;38.664;-9.202;2022-09-09T07:21:32;100983.81;;;20.81;88.37
62462;BME280;48511;38.664;-9.202;2022-09-09T07:23:33;100990.19;;;20.90;87.75
62462;BME280;48511;38.664;-9.202;2022-09-09T07:25:36;100985.84;;;20.89;87.10
62462;BME280;48511;38.664;-9.202;2022-09-09T07:27:37;100989.22;;;20.91;87.23
62462;BME280;48511;38.664;-9.202;2022-09-09T07:29:38;101003.63;;;21.09;86.76
62462;BME280;48511;38.664;-9.202;2022-09-09T07:31:39;100996.13;;;21.14;86.25
62462;BME280;48511;38.664;-9.202;2022-09-09T07:33:45;101005.25;;;21.33;85.80
62462;BME280;48511;38.664;-9.202;2022-09-09T07:35:45;101003.88;;;21.39;84.17
62462;BME280;48511;38.664;-9.202;2022-09-09T07:37:46;101009.72;;;21.21;84.34
62462;BME280;48511;38.664;-9.202;2022-09-09T07:39:47;101011.13;;;21.37;83.85
62462;BME280;48511;38.664;-9.202;2022-09-09T07:41:48;101008.53;;;21.25;83.68
62462;BME280;48511;38.664;-9.202;2022-09-09T07:43:53;101004.34;;;21.11;83.87
62462;BME280;48511;38.664;-9.202;2022-09-09T07:45:59;101017.03;;;21.29;84.23
62462;BME280;48511;38.664;-9.202;2022-09-09T07:48:02;101013.47;;;21.19;83.61
62462;BME280;48511;38.664;-9.202;2022-09-09T07:50:06;101027.78;;;21.27;83.51
62462;BME280;48511;38.664;-9.202;2022-09-09T07:52:09;101008.88;;;21.32;83.53
62462;BME280;48511;38.664;-9.202;2022-09-09T07:54:16;101007.34;;;21.51;83.29
62462;BME280;48511;38.664;-9.202;2022-09-09T07:56:21;101017.28;;;21.70;82.42
62462;BME280;48511;38.664;-9.202;2022-09-09T07:58:24;101017.03;;;21.94;81.46
62462;BME280;48511;38.664;-9.202;2022-09-09T08:00:24;101005.53;;;21.84;81.68
62462;BME280;48511;38.664;-9.202;2022-09-09T08:02:30;101017.34;;;22.22;79.59
62462;BME280;48511;38.664;-9.202;2022-09-09T08:04:30;100996.56;;;22.06;80.07
62462;BME280;48511;38.664;-9.202;2022-09-09T08:06:35;100996.41;;;22.28;77.54
62462;BME280;48511;38.664;-9.202;2022-09-09T08:08:38;101011.19;;;22.21;78.21
62462;BME280;48511;38.664;-9.202;2022-09-09T08:10:40;101013.84;;;22.21;78.68
62462;BME280;48511;38.664;-9.202;2022-09-09T08:12:42;101007.13;;;22.17;77.99
62462;BME280;48511;38.664;-9.202;2022-09-09T08:14:42;101011.97;;;22.12;78.95
62462;BME280;48511;38.664;-9.202;2022-09-09T08:16:46;101006.34;;;22.05;78.86
62462;BME280;48511;38.664;-9.202;2022-09-09T08:18:51;101005.03;;;22.21;77.52
62462;BME280;48511;38.664;-9.202;2022-09-09T08:20:53;101008.03;;;22.06;77.98
62462;BME280;48511;38.664;-9.202;2022-09-09T08:22:55;101010.63;;;21.96;78.53
62462;BME280;48511;38.664;-9.202;2022-09-09T08:24:56;101004.75;;;22.24;78.38
62462;BME280;48511;38.664;-9.202;2022-09-09T08:26:57;101010.63;;;22.18;77.65
62462;BME280;48511;38.664;-9.202;2022-09-09T08:28:59;101018.28;;;21.90;79.92
62462;BME280;48511;38.664;-9.202;2022-09-09T08:31:14;101013.03;;;21.57;80.95
62462;BME280;48511;38.664;-9.202;2022-09-09T08:33:16;101022.38;;;22.25;78.45
62462;BME280;48511;38.664;-9.202;2022-09-09T08:35:19;101017.59;;;22.19;78.71
62462;BME280;48511;38.664;-9.202;2022-09-09T08:37:22;101017.34;;;22.22;78.52
62462;BME280;48511;38.664;-9.202;2022-09-09T08:39:23;101019.06;;;22.33;78.04
62462;BME280;48511;38.664;-9.202;2022-09-09T08:41:34;101033.88;;;22.25;77.94
62462;BME280;48511;38.664;-9.202;2022-09-09T08:43:37;101024.72;;;22.39;77.92
62462;BME280;48511;38.664;-9.202;2022-09-09T08:45:52;101037.69;;;22.11;77.89
62462;BME280;48511;38.664;-9.202;2022-09-09T08:50:30;101027.06;;;22.11;79.25
62462;BME280;48511;38.664;-9.202;2022-09-09T08:52:55;101024.34;;;21.81;80.81
62462;BME280;48511;38.664;-9.202;2022-09-09T08:57:21;101033.31;;;22.32;79.21
62462;BME280;48511;38.664;-9.202;2022-09-09T08:59:27;101028.63;;;21.93;78.95
62462;BME280;48511;38.664;-9.202;2022-09-09T09:04:32;101041.38;;;21.78;80.61
62462;BME280;48511;38.664;-9.202;2022-09-09T09:09:04;101033.59;;;22.28;77.80
62462;BME280;48511;38.664;-9.202;2022-09-09T09:11:07;101034.69;;;22.26;77.67
62462;BME280;48511;38.664;-9.202;2022-09-09T09:13:18;101026.34;;;22.31;77.57
62462;BME280;48511;38.664;-9.202;2022-09-09T09:15:24;101032.69;;;22.70;75.58
62462;BME280;48511;38.664;-9.202;2022-09-09T09:17:30;101034.63;;;22.68;75.44
62462;BME280;48511;38.664;-9.202;2022-09-09T09:19:35;101022.38;;;22.77;75.27
62462;BME280;48511;38.664;-9.202;2022-09-09T09:21:44;101024.63;;;22.51;75.01
62462;BME280;48511;38.664;-9.202;2022-09-09T09:23:55;101030.47;;;22.75;74.32
62462;BME280;48511;38.664;-9.202;2022-09-09T09:26:00;101032.16;;;22.86;74.47
62462;BME280;48511;38.664;-9.202;2022-09-09T09:28:15;101047.81;;;22.80;74.59
62462;BME280;48511;38.664;-9.202;2022-09-09T09:30:29;101045.16;;;22.80;74.44
62462;BME280;48511;38.664;-9.202;2022-09-09T09:32:39;101045.84;;;22.82;74.12
62462;BME280;48511;38.664;-9.202;2022-09-09T09:34:41;101034.44;;;22.91;74.31
62462;BME280;48511;38.664;-9.202;2022-09-09T09:38:57;101044.88;;;23.23;72.40
62462;BME280;48511;38.664;-9.202;2022-09-09T09:41:02;101047.97;;;23.29;72.31
62462;BME280;48511;38.664;-9.202;2022-09-09T09:43:04;101038.63;;;23.34;72.21
62462;BME280;48511;38.664;-9.202;2022-09-09T09:47:38;101055.66;;;23.41;71.50
62462;BME280;48511;38.664;-9.202;2022-09-09T09:49:57;101061.56;;;23.45;71.26
62462;BME280;48511;38.664;-9.202;2022-09-09T09:52:06;101056.09;;;23.76;70.95
62462;BME280;48511;38.664;-9.202;2022-09-09T09:54:22;101057.78;;;23.87;69.84
62462;BME280;48511;38.664;-9.202;2022-09-09T09:56:29;101061.13;;;24.08;69.55
62462;BME280;48511;38.664;-9.202;2022-09-09T09:58:33;101066.69;;;24.25;67.78
62462;BME280;48511;38.664;-9.202;2022-09-09T10:00:47;101060.72;;;23.84;68.55
62462;BME280;48511;38.664;-9.202;2022-09-09T10:02:50;101074.19;;;24.02;68.36
62462;BME280;48511;38.664;-9.202;2022-09-09T10:05:03;101070.13;;;23.98;68.24
62462;BME280;48511;38.664;-9.202;2022-09-09T10:07:21;101072.38;;;23.92;69.39
62462;BME280;48511;38.664;-9.202;2022-09-09T10:09:32;101070.94;;;24.08;69.43
62462;BME280;48511;38.664;-9.202;2022-09-09T10:18:58;101093.91;;;24.19;66.52
62462;BME280;48511;38.664;-9.202;2022-09-09T10:28:58;101081.16;;;24.70;66.01
62462;BME280;48511;38.664;-9.202;2022-09-09T10:31:27;101084.53;;;24.62;64.69
62462;BME280;48511;38.664;-9.202;2022-09-09T10:36:12;101080.91;;;24.73;65.73
62462;BME280;48511;38.664;-9.202;2022-09-09T10:43:54;101078.47;;;25.08;64.43
62462;BME280;48511;38.664;-9.202;2022-09-09T10:46:16;101079.41;;;25.16;64.58
62462;BME280;48511;38.664;-9.202;2022-09-09T10:57:29;101057.16;;;24.80;67.04
62462;BME280;48511;38.664;-9.202;2022-09-09T10:59:33;101074.84;;;24.81;67.57
62462;BME280;48511;38.664;-9.202;2022-09-09T11:04:03;101071.47;;;25.06;67.43
62462;BME280;48511;38.664;-9.202;2022-09-09T11:06:09;101074.22;;;25.15;66.24
62462;BME280;48511;38.664;-9.202;2022-09-09T11:08:20;101077.09;;;25.03;66.71
62462;BME280;48511;38.664;-9.202;2022-09-09T11:12:40;101069.34;;;25.56;64.86
62462;BME280;48511;38.664;-9.202;2022-09-09T11:14:55;101052.47;;;25.37;65.01
62462;BME280;48511;38.664;-9.202;2022-09-09T11:17:02;101070.16;;;25.75;63.94
62462;BME280;48511;38.664;-9.202;2022-09-09T11:21:46;101058.97;;;25.53;64.68
62462;BME280;48511;38.664;-9.202;2022-09-09T11:23:54;101060.25;;;25.49;64.65
62462;BME280;48511;38.664;-9.202;2022-09-09T11:26:00;101060.63;;;25.72;63.80
62462;BME280;48511;38.664;-9.202;2022-09-09T11:38:06;101048.59;;;25.50;63.73
62462;BME280;48511;38.664;-9.202;2022-09-09T11:42:23;101045.56;;;25.63;64.11
62462;BME280;48511;38.664;-9.202;2022-09-09T11:44:30;101042.03;;;25.44;64.48
62462;BME280;48511;38.664;-9.202;2022-09-09T11:46:38;101039.81;;;25.76;64.08
62462;BME280;48511;38.664;-9.202;2022-09-09T11:48:40;101045.44;;;25.73;63.32
62462;BME280;48511;38.664;-9.202;2022-09-09T11:50:57;101036.69;;;25.62;63.74
62462;BME280;48511;38.664;-9.202;2022-09-09T11:55:28;101039.19;;;25.82;63.27
62462;BME280;48511;38.664;-9.202;2022-09-09T11:57:36;101042.09;;;25.34;64.29
62462;BME280;48511;38.664;-9.202;2022-09-09T11:59:37;101049.88;;;25.46;64.14
62462;BME280;48511;38.664;-9.202;2022-09-09T12:01:41;101042.88;;;25.63;63.88
62462;BME280;48511;38.664;-9.202;2022-09-09T12:03:52;101038.44;;;25.35;64.95
62462;BME280;48511;38.664;-9.202;2022-09-09T12:05:56;101042.47;;;25.76;63.41
62462;BME280;48511;38.664;-9.202;2022-09-09T12:08:02;101043.16;;;25.78;63.20
62462;BME280;48511;38.664;-9.202;2022-09-09T12:10:27;101039.53;;;25.15;65.69
62462;BME280;48511;38.664;-9.202;2022-09-09T12:12:31;101030.50;;;25.26;64.84
62462;BME280;48511;38.664;-9.202;2022-09-09T12:14:36;101035.41;;;25.48;64.68
62462;BME280;48511;38.664;-9.202;2022-09-09T12:16:37;101028.59;;;25.18;65.68
62462;BME280;48511;38.664;-9.202;2022-09-09T12:18:39;101036.59;;;25.18;65.06